Time;durP1;ratioP1;P1;durP2;ratioP2;P2;SDS_P1;SDS_P2;PMS_P1;PMS_P2;Temp;Humidity;BMP_temperature;BMP_pressure;BME280_temperature;BME280_humidity;BME280_pressure;Samples;Min_cycle;Max_cycle;Signal;HPM_P1;HPM_P2
2022/11/28 00:01:14;;;;;;;25.77;13.87;;;;;;;3.34;100.00;101395.09;5012329;28;20098;-84
2022/11/28 00:03:41;;;;;;;30.67;15.67;;;;;;;3.41;100.00;101398.72;5003866;28;20044;-83
2022/11/28 00:06:08;;;;;;;30.47;14.87;;;;;;;3.29;100.00;101395.00;5032923;28;20033;-82
2022/11/28 00:08:35;;;;;;;28.23;15.47;;;;;;;3.41;100.00;101386.53;5003091;28;20047;-82
2022/11/28 00:11:07;;;;;;;29.33;16.03;;;;;;;3.39;100.00;101390.84;5042845;28;20049;-85
2022/11/28 00:13:35;;;;;;;26.60;14.63;;;;;;;3.28;100.00;101394.97;5031124;28;20041;-84
2022/11/28 00:16:04;;;;;;;29.20;14.50;;;;;;;3.34;100.00;101392.47;4992913;28;20044;-85
2022/11/28 00:18:31;;;;;;;26.93;14.23;;;;;;;3.29;100.00;101379.34;5000226;28;20698;-85
2022/11/28 00:21:03;;;;;;;25.67;14.87;;;;;;;3.32;100.00;101384.63;5016302;28;20039;-85
2022/11/28 00:23:31;;;;;;;26.20;13.70;;;;;;;3.26;100.00;101388.81;5002347;28;20049;-84
2022/11/28 00:26:00;;;;;;;30.77;14.50;;;;;;;3.34;100.00;101384.66;5016563;28;20332;-86
2022/11/28 00:28:27;;;;;;;28.17;15.20;;;;;;;3.35;100.00;101384.66;5033924;28;20049;-86
2022/11/28 00:30:54;;;;;;;25.33;13.73;;;;;;;3.33;100.00;101381.16;5050493;28;20041;-85
2022/11/28 00:33:20;;;;;;;31.43;16.40;;;;;;;3.25;100.00;101371.41;5015983;28;20029;-85
2022/11/28 00:35:47;;;;;;;28.53;16.07;;;;;;;3.26;100.00;101378.38;5035838;28;20416;-84
2022/11/28 00:38:14;;;;;;;28.47;14.23;;;;;;;3.24;100.00;101373.13;5028503;28;20065;-85
2022/11/28 00:40:41;;;;;;;30.43;16.10;;;;;;;3.15;100.00;101370.34;5018649;28;20048;-85
2022/11/28 00:43:10;;;;;;;26.27;14.10;;;;;;;3.27;100.00;101373.19;5014105;28;20490;-85
2022/11/28 00:45:37;;;;;;;25.27;14.57;;;;;;;3.19;100.00;101366.03;5016743;28;20045;-86
2022/11/28 00:48:04;;;;;;;28.77;15.60;;;;;;;3.26;100.00;101362.72;4999576;28;20053;-87
2022/11/28 00:50:31;;;;;;;27.00;15.03;;;;;;;3.23;100.00;101360.94;5012654;28;20041;-86
2022/11/28 00:52:58;;;;;;;29.57;16.27;;;;;;;3.19;100.00;101359.09;5031140;28;20079;-85
2022/11/28 00:55:24;;;;;;;31.03;15.77;;;;;;;3.20;100.00;101347.81;5000827;28;20048;-85
2022/11/28 00:57:54;;;;;;;28.80;15.23;;;;;;;3.26;100.00;101347.94;5030926;28;20033;-85
2022/11/28 01:00:21;;;;;;;34.10;15.50;;;;;;;3.22;100.00;101346.13;5017837;28;20037;-86
2022/11/28 01:02:47;;;;;;;34.60;15.80;;;;;;;3.32;100.00;101344.56;5023493;28;20045;-86
2022/11/28 01:05:14;;;;;;;31.47;14.37;;;;;;;3.35;100.00;101342.88;5046723;28;20041;-85
2022/11/28 01:07:41;;;;;;;28.73;14.97;;;;;;;3.31;100.00;101346.31;5038898;28;20033;-85
2022/11/28 01:10:10;;;;;;;25.83;14.23;;;;;;;3.34;100.00;101343.75;4995430;28;20037;-85
2022/11/28 01:12:37;;;;;;;30.70;16.73;;;;;;;3.19;100.00;101343.41;5028566;28;20049;-85
2022/11/28 01:15:07;;;;;;;31.03;15.50;;;;;;;3.24;100.00;101333.97;5026143;28;20059;-85
2022/11/28 01:17:34;;;;;;;29.40;14.20;;;;;;;3.22;100.00;101333.06;5031782;28;20037;-85
2022/11/28 01:20:04;;;;;;;30.60;15.40;;;;;;;3.28;100.00;101337.50;5001990;28;20037;-85
2022/11/28 01:22:30;;;;;;;28.43;14.53;;;;;;;3.33;100.00;101333.25;4996658;28;20554;-85
2022/11/28 01:24:57;;;;;;;26.17;13.33;;;;;;;3.36;100.00;101329.00;5020990;28;20044;-86
2022/11/28 01:27:24;;;;;;;27.27;14.20;;;;;;;3.30;100.00;101330.59;5031207;28;20045;-85
2022/11/28 01:29:51;;;;;;;30.53;15.43;;;;;;;3.36;100.00;101326.38;5021217;28;20037;-85
2022/11/28 01:32:18;;;;;;;30.37;14.20;;;;;;;3.41;100.00;101325.59;5012775;28;20040;-85
2022/11/28 01:34:45;;;;;;;29.30;14.80;;;;;;;3.34;100.00;101322.84;5018873;28;20666;-86
2022/11/28 01:37:12;;;;;;;33.17;15.30;;;;;;;3.32;100.00;101327.16;5009203;28;20486;-86
2022/11/28 01:39:39;;;;;;;27.70;14.23;;;;;;;3.36;100.00;101323.78;5032832;28;20040;-86
2022/11/28 01:42:05;;;;;;;27.63;15.30;;;;;;;3.36;100.00;101304.59;5013053;28;20048;-84
2022/11/28 01:44:32;;;;;;;27.37;14.67;;;;;;;3.41;100.00;101312.53;5013329;28;20055;-84
2022/11/28 01:46:59;;;;;;;30.17;15.27;;;;;;;3.36;100.00;101305.50;5033918;28;20058;-85
2022/11/28 01:49:29;;;;;;;29.07;15.73;;;;;;;3.42;100.00;101298.59;5027534;28;20039;-85
2022/11/28 01:52:00;;;;;;;27.97;15.77;;;;;;;3.36;100.00;101296.75;5035506;28;20051;-84
2022/11/28 01:54:28;;;;;;;26.37;14.50;;;;;;;3.39;100.00;101289.00;5051779;28;20482;-84
2022/11/28 01:57:20;;;;;;;26.63;14.47;;;;;;;3.34;100.00;101290.63;5019329;28;20483;-85
2022/11/28 01:59:58;;;;;;;25.10;14.47;;;;;;;3.42;100.00;101290.78;5006118;28;20055;-85
2022/11/28 02:02:33;;;;;;;29.67;14.17;;;;;;;3.30;100.00;101288.81;5014125;28;20052;-85
2022/11/28 02:05:01;;;;;;;29.43;15.23;;;;;;;3.45;100.00;101294.34;5039635;28;20033;-85
2022/11/28 02:07:27;;;;;;;27.33;14.00;;;;;;;3.46;100.00;101284.78;5018341;28;20045;-85
2022/11/28 02:09:54;;;;;;;34.20;15.10;;;;;;;3.43;100.00;101288.19;5019649;28;20036;-85
2022/11/28 02:12:58;;;;;;;27.03;13.80;;;;;;;3.41;100.00;101292.50;5018133;28;20059;-86
2022/11/28 02:15:40;;;;;;;26.90;13.40;;;;;;;3.45;100.00;101286.50;4974055;28;20045;-85
2022/11/28 02:18:37;;;;;;;26.63;13.47;;;;;;;3.48;100.00;101280.44;5015831;28;20041;-86
2022/11/28 02:21:11;;;;;;;25.50;12.90;;;;;;;3.38;100.00;101282.91;4997277;28;20037;-86
2022/11/28 02:24:11;;;;;;;25.23;15.00;;;;;;;3.45;100.00;101282.97;5002122;28;20429;-86
2022/11/28 02:26:57;;;;;;;25.33;14.40;;;;;;;3.44;100.00;101276.88;5032419;28;20409;-86
2022/11/28 02:29:36;;;;;;;27.53;12.83;;;;;;;3.51;100.00;101275.25;5047026;28;20041;-85
2022/11/28 02:32:24;;;;;;;28.20;15.27;;;;;;;3.53;100.00;101273.56;5043956;28;20059;-85
2022/11/28 02:34:58;;;;;;;31.00;14.40;;;;;;;3.47;100.00;101261.28;5017123;28;20341;-85
2022/11/28 02:37:50;;;;;;;31.57;15.70;;;;;;;3.47;100.00;101265.63;5038423;28;20033;-85
2022/11/28 02:40:37;;;;;;;26.07;13.70;;;;;;;3.48;100.00;101259.56;5026930;28;20039;-86
2022/11/28 02:43:13;;;;;;;27.07;12.90;;;;;;;3.43;100.00;101255.97;5017428;28;20052;-86
2022/11/28 02:45:52;;;;;;;27.17;13.33;;;;;;;3.42;100.00;101257.69;5032056;28;20043;-85
2022/11/28 02:48:26;;;;;;;28.23;13.93;;;;;;;3.41;100.00;101250.72;5042380;28;20043;-85
2022/11/28 02:51:01;;;;;;;31.85;14.98;;;;;;;3.42;100.00;101248.97;4983611;28;20077;-85
2022/11/28 02:53:29;;;;;;;25.60;12.77;;;;;;;3.34;100.00;101247.09;5034198;28;20041;-85
2022/11/28 02:55:56;;;;;;;29.27;13.40;;;;;;;3.35;100.00;101248.88;5018389;28;20060;-85
2022/11/28 02:58:23;;;;;;;26.53;14.00;;;;;;;3.41;100.00;101248.09;5002372;28;20047;-86
2022/11/28 03:00:50;;;;;;;24.83;14.27;;;;;;;3.42;100.00;101249.84;4998661;28;20494;-84
2022/11/28 03:03:32;;;;;;;24.73;13.43;;;;;;;3.46;100.00;101243.84;5029956;28;20041;-84
2022/11/28 03:06:06;;;;;;;31.27;14.50;;;;;;;3.39;100.00;101245.47;5017778;28;20437;-85
2022/11/28 03:08:52;;;;;;;29.50;14.07;;;;;;;3.42;100.00;101248.97;5017939;28;20105;-84
2022/11/28 03:11:31;;;;;;;26.27;13.03;;;;;;;3.44;100.00;101236.81;5032689;28;20048;-85
2022/11/28 03:14:22;;;;;;;29.07;15.10;;;;;;;3.39;100.00;101242.84;5028411;28;20067;-84
2022/11/28 03:17:08;;;;;;;28.03;14.60;;;;;;;3.34;100.00;101231.44;5034679;28;20037;-85
2022/11/28 03:19:43;;;;;;;27.50;13.93;;;;;;;3.35;100.00;101225.34;5016767;28;20033;-85
2022/11/28 03:22:27;;;;;;;34.67;15.40;;;;;;;3.30;100.00;101226.16;5033624;28;20033;-85
2022/11/28 03:25:19;;;;;;;26.58;13.65;;;;;;;3.35;100.00;101227.97;5014332;28;20037;-83
2022/11/28 03:27:50;;;;;;;23.67;14.27;;;;;;;3.29;100.00;101230.50;5020249;28;20469;-83
2022/11/28 03:30:26;;;;;;;24.67;13.73;;;;;;;3.26;100.00;101214.75;5021389;28;20051;-83
2022/11/28 03:32:54;;;;;;;30.47;14.27;;;;;;;3.29;100.00;101214.81;5018828;28;20041;-83
2022/11/28 03:35:25;;;;;;;29.87;14.70;;;;;;;3.35;100.00;101216.66;5018244;28;20037;-83
2022/11/28 03:38:17;;;;;;;25.77;13.53;;;;;;;3.27;100.00;101220.84;5002525;28;20417;-84
2022/11/28 03:40:46;;;;;;;28.63;14.63;;;;;;;3.26;100.00;101219.97;5010954;28;20048;-84
2022/11/28 03:43:18;;;;;;;25.03;12.87;;;;;;;3.13;100.00;101220.63;5027880;28;20055;-83
2022/11/28 03:45:48;;;;;;;28.97;14.67;;;;;;;3.19;100.00;101215.47;5012484;28;20033;-85
2022/11/28 03:48:31;;;;;;;24.87;13.67;;;;;;;3.21;100.00;101216.41;4998421;28;20045;-84
2022/11/28 03:51:09;;;;;;;23.37;13.10;;;;;;;3.13;100.00;101211.91;5011337;28;20040;-83
2022/11/28 03:54:11;;;;;;;31.83;13.67;;;;;;;3.07;100.00;101210.94;5014324;28;20068;-84
2022/11/28 03:56:53;;;;;;;25.47;13.13;;;;;;;3.00;100.00;101216.00;4997435;28;20046;-84
2022/11/28 03:59:33;;;;;;;26.77;13.30;;;;;;;3.00;100.00;101208.16;5031204;28;20047;-83
2022/11/28 04:02:12;;;;;;;27.97;14.07;;;;;;;2.97;100.00;101200.28;5017721;28;20045;-82
2022/11/28 04:04:41;;;;;;;29.63;14.83;;;;;;;3.00;100.00;101206.44;5029738;28;20045;-83
2022/11/28 04:07:24;;;;;;;30.23;13.93;;;;;;;2.97;100.00;101201.16;5007395;28;20052;-84
2022/11/28 04:09:59;;;;;;;30.07;13.83;;;;;;;2.93;100.00;101204.56;5031195;28;20346;-83
2022/11/28 04:12:56;;;;;;;29.57;15.07;;;;;;;2.96;100.00;101190.72;5017645;28;20036;-83
2022/11/28 04:15:57;;;;;;;30.23;14.97;;;;;;;2.86;100.00;101193.97;5005983;28;20502;-83
2022/11/28 04:18:49;;;;;;;27.60;15.10;;;;;;;2.84;100.00;101188.72;5013892;28;20048;-83
2022/11/28 04:21:33;;;;;;;31.07;14.63;;;;;;;2.96;100.00;101188.09;5030163;28;20033;-83
2022/11/28 04:24:08;;;;;;;28.53;14.13;;;;;;;2.85;100.00;101179.16;4981795;28;20650;-83
2022/11/28 04:26:38;;;;;;;26.63;12.80;;;;;;;2.76;100.00;101185.09;5002031;28;20041;-83
2022/11/28 04:29:09;;;;;;;25.90;13.70;;;;;;;2.74;100.00;101181.56;5000751;28;20043;-83
2022/11/28 04:31:36;;;;;;;24.23;12.97;;;;;;;2.70;100.00;101185.88;5017646;28;20037;-82
2022/11/28 04:34:06;;;;;;;27.57;13.40;;;;;;;2.74;100.00;101177.22;5049873;28;20035;-83
2022/11/28 04:36:36;;;;;;;28.00;14.00;;;;;;;2.70;100.00;101178.03;5012496;28;20522;-83
2022/11/28 04:39:06;;;;;;;32.67;14.00;;;;;;;2.69;100.00;101176.28;5013779;28;20041;-83
2022/11/28 04:41:37;;;;;;;29.97;14.00;;;;;;;2.59;100.00;101178.66;5008682;28;20406;-83
2022/11/28 04:44:20;;;;;;;28.93;14.40;;;;;;;2.54;100.00;101169.03;5017371;28;20041;-84
2022/11/28 04:46:51;;;;;;;27.60;13.97;;;;;;;2.57;100.00;101175.16;5016742;28;20047;-83
2022/11/28 04:49:18;;;;;;;28.07;13.07;;;;;;;2.50;100.00;101176.75;4999307;28;20055;-82
2022/11/28 04:52:07;;;;;;;24.93;13.43;;;;;;;2.58;100.00;101177.78;5002370;28;20043;-84
2022/11/28 04:54:56;;;;;;;30.33;14.43;;;;;;;2.56;100.00;101173.38;4999741;28;20061;-84
2022/11/28 04:57:29;;;;;;;27.80;12.47;;;;;;;2.50;100.00;101175.00;4999651;28;20045;-83
2022/11/28 04:59:56;;;;;;;27.33;12.43;;;;;;;2.42;100.00;101178.31;5112416;22;20045;-79
2022/11/28 05:02:24;;;;;;;30.60;14.87;;;;;;;2.35;100.00;101173.81;5017963;28;20126;-79
2022/11/28 05:04:54;;;;;;;23.47;12.73;;;;;;;2.50;100.00;101177.63;5027578;28;20096;-79
2022/11/28 05:07:22;;;;;;;34.83;16.10;;;;;;;2.49;100.00;101167.16;5021866;28;20116;-79
2022/11/28 05:09:49;;;;;;;26.63;13.70;;;;;;;2.39;100.00;101175.66;5033775;28;20116;-79
2022/11/28 05:12:16;;;;;;;31.80;13.70;;;;;;;2.57;100.00;101169.94;5045550;28;20033;-79
2022/11/28 05:14:43;;;;;;;31.50;14.43;;;;;;;2.55;100.00;101169.91;5042976;28;20128;-79
2022/11/28 05:17:12;;;;;;;26.60;13.17;;;;;;;2.40;100.00;101175.69;5034911;28;20038;-79
2022/11/28 05:19:39;;;;;;;27.87;13.43;;;;;;;2.53;100.00;101172.47;5014539;28;20047;-79
2022/11/28 05:22:06;;;;;;;28.87;14.20;;;;;;;2.51;100.00;101171.53;5004721;28;20043;-79
2022/11/28 05:24:32;;;;;;;27.33;15.53;;;;;;;2.45;100.00;101174.06;5034117;28;20041;-80
2022/11/28 05:26:59;;;;;;;28.23;14.07;;;;;;;2.51;100.00;101170.66;5035693;28;20040;-79
2022/11/28 05:29:26;;;;;;;29.80;13.43;;;;;;;2.66;100.00;101163.16;5036338;28;20043;-79
2022/11/28 05:31:53;;;;;;;29.90;14.27;;;;;;;2.68;100.00;101171.88;5022697;28;20043;-82
2022/11/28 05:34:20;;;;;;;29.00;13.43;;;;;;;2.66;100.00;101170.09;5038407;28;20048;-82
2022/11/28 05:36:47;;;;;;;31.07;13.70;;;;;;;2.73;100.00;101164.16;5019086;28;20037;-82
2022/11/28 05:39:13;;;;;;;32.27;15.33;;;;;;;2.69;100.00;101172.75;5087580;22;20041;-79
2022/11/28 05:41:40;;;;;;;28.70;12.97;;;;;;;2.60;100.00;101172.59;5066889;22;20062;-80
2022/11/28 05:44:08;;;;;;;29.73;13.83;;;;;;;2.69;100.00;101167.53;5272811;22;20019;31
2022/11/28 05:46:35;;;;;;;30.40;14.47;;;;;;;2.72;100.00;101165.91;5018195;22;20862;-80
2022/11/28 05:49:02;;;;;;;30.57;14.00;;;;;;;2.71;100.00;101161.53;4960513;28;20046;-80
2022/11/28 05:51:29;;;;;;;28.33;14.63;;;;;;;2.57;100.00;101162.97;5008878;28;20045;-80
2022/11/28 05:53:56;;;;;;;29.87;14.10;;;;;;;2.66;100.00;101163.16;4970365;28;20048;-80
2022/11/28 05:56:23;;;;;;;28.97;13.70;;;;;;;2.66;100.00;101154.44;4994144;28;20042;-80
2022/11/28 05:58:51;;;;;;;27.13;14.23;;;;;;;2.76;100.00;101153.78;5011215;28;20049;-79
2022/11/28 06:01:23;;;;;;;26.37;13.07;;;;;;;2.70;100.00;101151.06;5011169;28;20505;-80
2022/11/28 06:03:56;;;;;;;30.33;14.10;;;;;;;2.75;100.00;101155.50;5010466;28;20052;-80
2022/11/28 06:06:28;;;;;;;34.33;17.57;;;;;;;2.76;100.00;101153.78;5027009;28;20056;-79
2022/11/28 06:08:55;;;;;;;28.27;13.13;;;;;;;2.72;100.00;101157.19;4995694;28;20418;-80
2022/11/28 06:11:23;;;;;;;28.13;15.10;;;;;;;2.77;100.00;101155.53;4995823;28;20046;-80
2022/11/28 06:13:50;;;;;;;34.33;16.00;;;;;;;2.71;100.00;101145.88;5011966;28;20042;-81
2022/11/28 06:16:20;;;;;;;25.30;14.33;;;;;;;2.77;100.00;101145.97;4982301;28;20417;-79
2022/11/28 06:18:51;;;;;;;31.60;15.07;;;;;;;2.78;100.00;101146.88;4962997;28;20046;-80
2022/11/28 06:21:19;;;;;;;33.77;16.00;;;;;;;2.71;100.00;101151.09;4978876;28;20041;-81
2022/11/28 06:23:46;;;;;;;29.77;15.17;;;;;;;2.80;100.00;101143.44;4979352;28;20048;-80
2022/11/28 06:26:16;;;;;;;33.13;16.53;;;;;;;2.79;100.00;101131.25;4994831;28;20046;-80
2022/11/28 06:28:43;;;;;;;29.27;16.63;;;;;;;2.80;100.00;101138.22;4995205;28;20068;-81
2022/11/28 06:31:18;;;;;;;30.03;14.40;;;;;;;2.78;100.00;101139.94;5019943;28;20406;-81
2022/11/28 06:33:46;;;;;;;30.60;13.80;;;;;;;2.79;100.00;101128.63;5008000;28;20064;-79
2022/11/28 06:36:14;;;;;;;30.50;14.33;;;;;;;2.83;100.00;101122.59;5006972;28;20045;-80
2022/11/28 06:38:41;;;;;;;27.87;14.50;;;;;;;2.75;100.00;101115.50;4984563;28;20041;-79
2022/11/28 06:41:11;;;;;;;35.00;15.67;;;;;;;2.72;100.00;101111.09;4994973;28;20046;-80
2022/11/28 06:43:38;;;;;;;28.30;13.90;;;;;;;2.71;100.00;101103.25;4993360;28;20050;-82
2022/11/28 06:46:11;;;;;;;32.70;14.17;;;;;;;2.66;100.00;101102.28;4985628;28;20052;-79
2022/11/28 06:48:42;;;;;;;32.60;15.77;;;;;;;2.69;100.00;101105.84;5021177;28;20047;-80
2022/11/28 06:51:10;;;;;;;34.13;16.63;;;;;;;2.73;100.00;101105.03;5015066;28;20334;-80
2022/11/28 06:53:37;;;;;;;28.57;15.40;;;;;;;2.61;100.00;101112.66;4999387;28;20055;-81
2022/11/28 06:56:09;;;;;;;32.10;15.73;;;;;;;2.65;100.00;101129.22;5015542;28;20249;-80
2022/11/28 06:58:36;;;;;;;33.90;15.87;;;;;;;2.58;100.00;101120.38;5015687;28;20055;-81
2022/11/28 07:01:29;;;;;;;31.43;13.93;;;;;;;2.59;100.00;101121.28;4979716;28;20410;-79
2022/11/28 07:03:57;;;;;;;30.40;14.67;;;;;;;2.65;100.00;101118.78;4997734;28;20060;-79
2022/11/28 07:06:25;;;;;;;36.40;16.53;;;;;;;2.53;100.00;101111.63;5016051;28;20053;-79
2022/11/28 07:08:54;;;;;;;33.63;15.50;;;;;;;2.44;100.00;101119.25;5015095;28;20036;-80
2022/11/28 07:11:24;;;;;;;30.87;16.43;;;;;;;2.63;100.00;101118.75;5015805;28;20047;-79
2022/11/28 07:13:52;;;;;;;29.37;14.20;;;;;;;2.63;100.00;101117.88;5000608;28;20049;-79
2022/11/28 07:16:22;;;;;;;30.83;16.17;;;;;;;2.65;100.00;101114.44;5002746;28;20510;-79
2022/11/28 07:18:50;;;;;;;34.67;16.40;;;;;;;2.53;100.00;101117.72;5033323;28;20414;-78
2022/11/28 07:21:18;;;;;;;33.27;16.20;;;;;;;2.61;100.00;101112.66;5016001;28;20047;-79
2022/11/28 07:23:45;;;;;;;31.10;15.30;;;;;;;2.65;100.00;101116.19;4999489;28;20046;-81
2022/11/28 07:26:14;;;;;;;34.87;15.60;;;;;;;2.65;100.00;101104.00;5016302;28;20041;-80
2022/11/28 07:28:41;;;;;;;36.63;16.27;;;;;;;2.66;100.00;101120.53;5005413;28;20041;-79
2022/11/28 07:31:14;;;;;;;32.03;15.57;;;;;;;2.65;100.00;101106.63;5018119;28;20051;-78
2022/11/28 07:33:43;;;;;;;32.53;15.10;;;;;;;2.68;100.00;101103.19;5013502;28;20037;-81
2022/11/28 07:36:23;;;;;;;33.53;15.37;;;;;;;2.63;100.00;101120.50;5015210;28;20049;-80
2022/11/28 07:38:56;;;;;;;36.83;16.40;;;;;;;2.70;100.00;101106.72;4999649;28;20424;-81
2022/11/28 07:41:23;;;;;;;32.77;17.53;;;;;;;2.72;100.00;101111.09;5015648;28;20047;-80
2022/11/28 07:44:00;;;;;;;34.60;18.23;;;;;;;2.58;100.00;101116.91;5015782;28;20531;-80
2022/11/28 07:46:29;;;;;;;34.77;16.37;;;;;;;2.62;100.00;101106.56;4998771;28;20620;-81
2022/11/28 07:48:56;;;;;;;35.13;16.07;;;;;;;2.60;100.00;101104.75;5015193;28;20041;-78
2022/11/28 07:51:26;;;;;;;29.67;15.57;;;;;;;2.66;100.00;101107.50;5052932;28;20111;-80
2022/11/28 07:53:53;;;;;;;31.80;16.13;;;;;;;2.70;100.00;101099.78;5015884;28;20075;-79
2022/11/28 07:56:23;;;;;;;38.77;17.47;;;;;;;2.70;100.00;101098.91;5015755;28;20033;-79
2022/11/28 07:58:51;;;;;;;33.43;16.33;;;;;;;2.81;100.00;101105.19;5013667;28;20029;-79
2022/11/28 08:01:20;;;;;;;34.17;17.40;;;;;;;2.86;100.00;101113.06;5012752;28;20576;-79
2022/11/28 08:03:55;;;;;;;34.40;18.30;;;;;;;2.88;100.00;101107.06;5019367;28;20034;-81
2022/11/28 08:06:24;;;;;;;34.83;17.27;;;;;;;2.90;100.00;101105.34;5014323;28;20045;-79
2022/11/28 08:08:52;;;;;;;33.83;17.80;;;;;;;2.88;100.00;101104.44;5030350;28;20417;-79
2022/11/28 08:11:21;;;;;;;40.93;19.20;;;;;;;3.02;100.00;101100.31;4997884;28;20041;-80
2022/11/28 08:13:48;;;;;;;37.53;18.77;;;;;;;2.94;100.00;101095.81;4999998;28;20053;-81
2022/11/28 08:16:19;;;;;;;38.17;17.93;;;;;;;2.98;100.00;101106.34;4996446;28;20610;-80
2022/11/28 08:18:47;;;;;;;37.60;18.07;;;;;;;3.05;100.00;101094.28;5013492;28;20042;-81
2022/11/28 08:21:19;;;;;;;36.93;18.83;;;;;;;3.11;100.00;101094.38;5005326;28;20492;-80
2022/11/28 08:23:46;;;;;;;39.33;18.50;;;;;;;3.18;100.00;101087.53;5022310;28;20047;-80
2022/11/28 08:26:15;;;;;;;35.87;17.83;;;;;;;3.21;100.00;101093.69;4997206;28;20037;-79
2022/11/28 08:28:42;;;;;;;35.97;18.10;;;;;;;3.22;100.00;101087.63;5008636;28;20041;-79
2022/11/28 08:31:15;;;;;;;34.50;18.03;;;;;;;3.20;100.00;101091.94;5012832;28;20040;-80
2022/11/28 08:33:43;;;;;;;37.57;17.77;;;;;;;3.20;100.00;101083.25;4999241;28;20059;-79
2022/11/28 08:36:12;;;;;;;36.27;17.63;;;;;;;3.10;100.00;101080.44;5014180;28;20396;-79
2022/11/28 08:38:40;;;;;;;37.90;18.57;;;;;;;3.34;100.00;101087.81;5014093;28;20037;-79
2022/11/28 08:41:09;;;;;;;36.00;18.63;;;;;;;3.26;100.00;101081.56;5009404;28;20034;-80
2022/11/28 08:43:37;;;;;;;37.73;18.70;;;;;;;3.25;100.00;101082.44;5008486;28;20042;-80
2022/11/28 08:46:09;;;;;;;34.23;18.50;;;;;;;3.30;100.00;101086.00;4995372;28;20052;-80
2022/11/28 08:48:37;;;;;;;41.93;19.47;;;;;;;3.29;100.00;101089.47;5012272;28;20033;-79
2022/11/28 08:51:04;;;;;;;42.23;19.77;;;;;;;3.19;100.00;101081.44;5009566;28;20045;-78
2022/11/28 08:53:31;;;;;;;39.97;19.83;;;;;;;3.25;100.00;101081.56;5005105;28;20108;-78
2022/11/28 08:55:59;;;;;;;41.30;19.33;;;;;;;3.24;100.00;101080.69;5028527;28;20116;-79
2022/11/28 08:58:26;;;;;;;42.20;19.23;;;;;;;3.17;100.00;101084.03;5027498;28;20102;-78
2022/11/28 09:00:53;;;;;;;41.17;18.90;;;;;;;3.28;100.00;101081.59;5034357;28;20116;-79
2022/11/28 09:03:20;;;;;;;43.10;21.63;;;;;;;3.28;100.00;101092.94;5058487;28;20116;-78
2022/11/28 09:05:47;;;;;;;39.93;20.80;;;;;;;3.28;100.00;101090.34;5040187;28;20149;-78
2022/11/28 09:08:16;;;;;;;43.77;20.17;;;;;;;3.34;100.00;101082.56;5042398;28;20106;-78
2022/11/28 09:10:44;;;;;;;37.47;18.67;;;;;;;3.39;100.00;101080.06;5021066;28;20124;-78
2022/11/28 09:13:12;;;;;;;42.37;18.40;;;;;;;3.24;100.00;101077.19;5028810;28;20563;-78
2022/11/28 09:15:41;;;;;;;41.63;20.47;;;;;;;3.41;100.00;101080.94;5019913;28;20096;-79
2022/11/28 09:18:08;;;;;;;43.23;18.63;;;;;;;3.36;100.00;101077.38;5010487;28;20523;-78
2022/11/28 09:20:35;;;;;;;37.63;19.47;;;;;;;3.37;100.00;101087.00;5003753;28;20124;-79
2022/11/28 09:23:02;;;;;;;43.80;20.67;;;;;;;3.46;100.00;101088.88;5007384;28;20303;-78
2022/11/28 09:25:29;;;;;;;43.07;19.47;;;;;;;3.48;100.00;101084.53;5008321;28;20112;-78
2022/11/28 09:27:56;;;;;;;37.93;19.50;;;;;;;3.51;100.00;101084.56;5022488;28;20105;-78
2022/11/28 09:30:24;;;;;;;42.23;21.47;;;;;;;3.30;100.00;101085.13;5021755;28;20121;-79
2022/11/28 09:32:51;;;;;;;47.07;20.50;;;;;;;3.34;100.00;101084.31;5030101;28;20116;-78
2022/11/28 09:35:18;;;;;;;36.23;20.30;;;;;;;3.41;100.00;101077.47;5025788;28;20100;-79
2022/11/28 09:37:45;;;;;;;40.97;19.50;;;;;;;3.36;100.00;101080.91;5023219;28;20168;-78
2022/11/28 09:40:17;;;;;;;39.20;18.53;;;;;;;3.50;100.00;101070.63;5025274;28;20105;-80
2022/11/28 09:42:45;;;;;;;40.87;21.07;;;;;;;3.64;100.00;101073.47;5004560;28;20048;-79
2022/11/28 09:45:21;;;;;;;43.53;21.00;;;;;;;3.67;100.00;101078.72;5019980;28;20437;-79
2022/11/28 09:47:50;;;;;;;42.47;20.83;;;;;;;3.84;100.00;101058.91;5000382;28;20038;-80
2022/11/28 09:50:21;;;;;;;38.70;19.63;;;;;;;3.79;100.00;101058.00;4985553;28;20133;-80
2022/11/28 09:52:48;;;;;;;44.43;21.23;;;;;;;3.81;100.00;101053.66;4995612;28;20041;-79
2022/11/28 09:55:17;;;;;;;38.97;20.43;;;;;;;3.83;100.00;101051.94;5002630;28;20129;-80
2022/11/28 09:57:49;;;;;;;36.10;20.10;;;;;;;3.81;100.00;101053.66;4993592;28;20582;-80
2022/11/28 10:00:17;;;;;;;40.30;18.80;;;;;;;3.91;100.00;101055.53;4979604;28;20050;-80
2022/11/28 10:03:24;;;;;;;39.80;20.83;;;;;;;4.02;100.00;101054.78;4986349;28;20048;-79
2022/11/28 10:06:10;;;;;;;36.63;17.83;;;;;;;3.90;100.00;101047.69;4984489;28;20157;-79
2022/11/28 10:08:50;;;;;;;43.23;20.23;;;;;;;3.95;100.00;101044.28;4968537;28;20120;-79
2022/11/28 10:11:55;;;;;;;41.37;20.30;;;;;;;4.04;100.00;101051.34;5026420;28;20080;-79
2022/11/28 10:14:45;;;;;;;39.35;19.98;;;;;;;4.03;100.00;101049.56;5002797;28;20121;-79
2022/11/28 10:17:12;;;;;;;39.63;20.07;;;;;;;4.11;100.00;101045.31;5002201;28;20116;-79
2022/11/28 10:19:47;;;;;;;42.20;20.03;;;;;;;3.99;100.00;101047.78;5020111;28;20120;-79
2022/11/28 10:22:43;;;;;;;37.73;20.67;;;;;;;3.80;100.00;101046.69;5016887;28;20120;-79
2022/11/28 10:25:17;;;;;;;39.90;19.40;;;;;;;3.86;100.00;101049.34;4987969;28;20120;-78
2022/11/28 10:27:46;;;;;;;37.47;19.33;;;;;;;4.03;100.00;101046.06;5003644;28;20118;-79
2022/11/28 10:30:22;;;;;;;43.43;21.90;;;;;;;4.04;100.00;101051.34;5019430;28;20112;-79
2022/11/28 10:32:55;;;;;;;43.90;21.00;;;;;;;4.01;100.00;101056.53;5021306;28;20599;-79
2022/11/28 10:35:40;;;;;;;43.53;21.03;;;;;;;3.93;100.00;101048.56;5034549;28;20164;-79
2022/11/28 10:38:12;;;;;;;43.50;20.60;;;;;;;3.94;100.00;101049.44;4986305;28;20118;-79
2022/11/28 10:40:54;;;;;;;44.40;23.20;;;;;;;4.05;100.00;101042.66;4987537;28;20098;-79
2022/11/28 10:43:33;;;;;;;48.43;24.70;;;;;;;4.05;100.00;101050.50;4988569;28;20094;-78
2022/11/28 10:46:10;;;;;;;57.73;28.47;;;;;;;4.16;100.00;101056.72;5017626;28;20558;-79
2022/11/28 10:48:50;;;;;;;47.80;25.23;;;;;;;4.02;100.00;101047.81;5022295;28;20093;-78
2022/11/28 10:51:55;;;;;;;41.43;23.07;;;;;;;4.10;100.00;101040.06;5020422;28;20106;-78
2022/11/28 10:54:28;;;;;;;43.55;22.23;;;;;;;4.20;100.00;101034.06;4985620;28;20113;-79
2022/11/28 10:57:41;;;;;;;39.87;21.67;;;;;;;4.17;100.00;101041.91;5001705;28;20121;-79
2022/11/28 11:00:11;;;;;;;49.40;22.97;;;;;;;4.00;100.00;101049.53;5090161;23;20121;-84
2022/11/28 11:02:55;;;;;;;41.87;20.90;;;;;;;4.15;100.00;101049.72;5035200;28;20484;-84
2022/11/28 11:05:28;;;;;;;42.15;19.85;;;;;;;4.26;100.00;101030.66;5003855;28;20121;-85
2022/11/28 11:08:19;;;;;;;43.80;20.57;;;;;;;4.38;100.00;101036.03;5032228;28;20104;-84
2022/11/28 11:10:51;;;;;;;45.07;22.20;;;;;;;4.30;100.00;101035.97;5045624;28;20335;-84
2022/11/28 11:13:26;;;;;;;40.73;20.00;;;;;;;4.05;100.00;101033.94;5032342;28;20036;-84
2022/11/28 11:16:13;;;;;;;46.97;22.13;;;;;;;4.18;100.00;101033.19;5023577;28;20449;-84
2022/11/28 11:18:43;;;;;;;44.40;21.70;;;;;;;4.24;100.00;101025.44;5036101;28;20102;-84
2022/11/28 11:21:14;;;;;;;42.87;21.90;;;;;;;4.26;100.00;101026.31;5052634;28;20043;-84
2022/11/28 11:23:42;;;;;;;38.03;19.13;;;;;;;4.22;100.00;101024.53;5035427;28;20132;-83
2022/11/28 11:26:24;;;;;;;41.90;20.13;;;;;;;4.33;100.00;101022.91;5035030;28;20045;-83
2022/11/28 11:28:51;;;;;;;38.80;22.27;;;;;;;4.37;100.00;101019.47;5036442;28;20116;-83
2022/11/28 11:31:22;;;;;;;42.80;21.23;;;;;;;4.36;100.00;101014.19;5034710;28;20040;-83
2022/11/28 11:33:52;;;;;;;45.53;24.30;;;;;;;4.44;100.00;101017.78;5053106;28;20025;-83